Woking, Canada
Current Conditions -  °F | °C
As of 1:00 AM on Monday 24 Nov 2014 (Local Time) from CYQU Reporting Station
Overcast Overcast  
Wind Chill: 21°   Ceiling: 7800
Heat Index: 21°   Visibility: 25mi
Dew Point: 18°   Wind: 3mph
Humidity: 86%   Direction: 110°ESE
Pressure: 29.89"   Gusts: NA
Location:  55.6°N, 118.77°W
Report Text: CYQU 240800Z 11003KT 25SM OVC078 M06/M08 A2989 RMK AC8 SLP167
Loading
Personal Weather Stations






























Interactive Weather Map New forecast layout! Learn more

10-Day Weather Forecast

Advertisements
Track Severe Weather on mobile